Lorenzo, Texas
Current Conditions -  °F | °C
As of 11:53 PM on Monday 20 Oct 2014 (Local Time) from KLBB Reporting Station
Few Clouds Few Clouds  
Wind Chill: 59°   Ceiling: Unl
Heat Index: 59°   Visibility: 10mi
Dew Point: 52°   Wind: 5mph
Humidity: 78%   Direction: 180°S
Pressure: 30.11"   Gusts: NA
Location:  33.67°N, 101.54°W
Report Text: KLBB 210453Z 18004KT 10SM FEW300 15/11 A3011 RMK AO2 SLP162 T01500111
Loading
Personal Weather Stations






























Interactive Weather Map
Tropical Storm Tracking
New forecast layout! Learn more

10-Day Weather Forecast

Advertisements
Track Severe Weather on mobile